sensor_id;sensor_type;location;lat;lon;timestamp;P1;durP1;ratioP1;P2;durP2;ratioP2
45887;SDS011;31595;51.418;7.572;2024-01-11T00:01:03;35.35;;;21.58;;
45887;SDS011;31595;51.418;7.572;2024-01-11T00:03:32;41.55;;;22.92;;
45887;SDS011;31595;51.418;7.572;2024-01-11T00:06:00;38.45;;;22.20;;
45887;SDS011;31595;51.418;7.572;2024-01-11T00:08:27;40.58;;;23.45;;
45887;SDS011;31595;51.418;7.572;2024-01-11T00:10:54;43.25;;;23.20;;
45887;SDS011;31595;51.418;7.572;2024-01-11T00:13:21;39.15;;;23.17;;
45887;SDS011;31595;51.418;7.572;2024-01-11T00:15:47;38.25;;;21.45;;
45887;SDS011;31595;51.418;7.572;2024-01-11T00:18:14;37.72;;;21.48;;
45887;SDS011;31595;51.418;7.572;2024-01-11T00:20:44;38.63;;;21.65;;
45887;SDS011;31595;51.418;7.572;2024-01-11T00:23:11;36.17;;;21.23;;
45887;SDS011;31595;51.418;7.572;2024-01-11T00:25:38;39.25;;;22.92;;
45887;SDS011;31595;51.418;7.572;2024-01-11T00:28:05;41.22;;;22.80;;
45887;SDS011;31595;51.418;7.572;2024-01-11T00:30:32;40.53;;;22.55;;
45887;SDS011;31595;51.418;7.572;2024-01-11T00:32:58;41.33;;;23.48;;
45887;SDS011;31595;51.418;7.572;2024-01-11T00:35:27;37.45;;;22.05;;
45887;SDS011;31595;51.418;7.572;2024-01-11T00:37:55;39.88;;;21.92;;
45887;SDS011;31595;51.418;7.572;2024-01-11T00:40:21;39.50;;;22.85;;
45887;SDS011;31595;51.418;7.572;2024-01-11T00:42:48;44.65;;;23.52;;
45887;SDS011;31595;51.418;7.572;2024-01-11T00:45:15;40.90;;;23.70;;
45887;SDS011;31595;51.418;7.572;2024-01-11T00:47:42;37.38;;;21.90;;
45887;SDS011;31595;51.418;7.572;2024-01-11T00:50:09;39.70;;;23.02;;
45887;SDS011;31595;51.418;7.572;2024-01-11T00:52:36;38.90;;;22.40;;
45887;SDS011;31595;51.418;7.572;2024-01-11T00:55:05;39.75;;;22.95;;
45887;SDS011;31595;51.418;7.572;2024-01-11T00:57:32;38.08;;;22.45;;
45887;SDS011;31595;51.418;7.572;2024-01-11T00:59:59;41.45;;;23.83;;
45887;SDS011;31595;51.418;7.572;2024-01-11T01:02:26;38.50;;;22.48;;
45887;SDS011;31595;51.418;7.572;2024-01-11T01:04:52;43.38;;;24.58;;
45887;SDS011;31595;51.418;7.572;2024-01-11T01:07:19;35.78;;;22.27;;
45887;SDS011;31595;51.418;7.572;2024-01-11T01:09:46;39.92;;;23.75;;
45887;SDS011;31595;51.418;7.572;2024-01-11T01:12:14;42.88;;;23.92;;
45887;SDS011;31595;51.418;7.572;2024-01-11T01:14:44;38.80;;;22.70;;
45887;SDS011;31595;51.418;7.572;2024-01-11T01:17:11;40.67;;;23.85;;
45887;SDS011;31595;51.418;7.572;2024-01-11T01:19:37;37.67;;;22.25;;
45887;SDS011;31595;51.418;7.572;2024-01-11T01:22:04;39.55;;;21.70;;
45887;SDS011;31595;51.418;7.572;2024-01-11T01:24:31;39.17;;;22.90;;
45887;SDS011;31595;51.418;7.572;2024-01-11T01:26:58;38.40;;;22.30;;
45887;SDS011;31595;51.418;7.572;2024-01-11T01:29:27;41.13;;;23.98;;
45887;SDS011;31595;51.418;7.572;2024-01-11T01:31:53;41.13;;;23.90;;
45887;SDS011;31595;51.418;7.572;2024-01-11T01:34:21;41.97;;;22.42;;
45887;SDS011;31595;51.418;7.572;2024-01-11T01:36:48;44.60;;;24.10;;
45887;SDS011;31595;51.418;7.572;2024-01-11T01:39:14;47.45;;;23.33;;
45887;SDS011;31595;51.418;7.572;2024-01-11T01:41:42;42.42;;;24.05;;
45887;SDS011;31595;51.418;7.572;2024-01-11T01:44:08;43.60;;;23.92;;
45887;SDS011;31595;51.418;7.572;2024-01-11T01:46:37;52.13;;;28.10;;
45887;SDS011;31595;51.418;7.572;2024-01-11T01:49:04;51.30;;;27.42;;
45887;SDS011;31595;51.418;7.572;2024-01-11T01:51:31;44.78;;;24.67;;
45887;SDS011;31595;51.418;7.572;2024-01-11T01:53:58;38.70;;;22.15;;
45887;SDS011;31595;51.418;7.572;2024-01-11T01:56:26;34.20;;;21.10;;
45887;SDS011;31595;51.418;7.572;2024-01-11T01:58:53;37.33;;;22.58;;
45887;SDS011;31595;51.418;7.572;2024-01-11T02:01:20;43.33;;;24.33;;
45887;SDS011;31595;51.418;7.572;2024-01-11T02:03:48;39.08;;;22.38;;
45887;SDS011;31595;51.418;7.572;2024-01-11T02:06:16;35.83;;;20.85;;
45887;SDS011;31595;51.418;7.572;2024-01-11T02:08:43;36.97;;;20.88;;
45887;SDS011;31595;51.418;7.572;2024-01-11T02:11:10;33.80;;;21.05;;
45887;SDS011;31595;51.418;7.572;2024-01-11T02:13:37;36.85;;;21.30;;
45887;SDS011;31595;51.418;7.572;2024-01-11T02:16:04;41.45;;;23.17;;
45887;SDS011;31595;51.418;7.572;2024-01-11T02:18:31;33.78;;;20.45;;
45887;SDS011;31595;51.418;7.572;2024-01-11T02:21:00;38.28;;;21.35;;
45887;SDS011;31595;51.418;7.572;2024-01-11T02:23:28;40.30;;;23.50;;
45887;SDS011;31595;51.418;7.572;2024-01-11T02:25:57;39.30;;;22.80;;
45887;SDS011;31595;51.418;7.572;2024-01-11T02:28:23;43.22;;;23.85;;
45887;SDS011;31595;51.418;7.572;2024-01-11T02:30:50;39.92;;;22.98;;
45887;SDS011;31595;51.418;7.572;2024-01-11T02:33:17;41.45;;;23.75;;
45887;SDS011;31595;51.418;7.572;2024-01-11T02:35:44;41.97;;;23.55;;
45887;SDS011;31595;51.418;7.572;2024-01-11T02:38:11;41.83;;;23.48;;
45887;SDS011;31595;51.418;7.572;2024-01-11T02:40:37;39.22;;;23.33;;
45887;SDS011;31595;51.418;7.572;2024-01-11T02:43:09;39.92;;;22.25;;
45887;SDS011;31595;51.418;7.572;2024-01-11T02:45:36;44.58;;;23.95;;
45887;SDS011;31595;51.418;7.572;2024-01-11T02:48:03;40.38;;;23.92;;
45887;SDS011;31595;51.418;7.572;2024-01-11T02:50:30;37.97;;;20.88;;
45887;SDS011;31595;51.418;7.572;2024-01-11T02:52:57;39.95;;;22.38;;
45887;SDS011;31595;51.418;7.572;2024-01-11T02:55:23;39.58;;;24.08;;
45887;SDS011;31595;51.418;7.572;2024-01-11T02:57:50;38.95;;;22.08;;
45887;SDS011;31595;51.418;7.572;2024-01-11T03:00:19;35.78;;;21.88;;
45887;SDS011;31595;51.418;7.572;2024-01-11T03:02:46;43.42;;;22.73;;
45887;SDS011;31595;51.418;7.572;2024-01-11T03:05:13;34.22;;;20.42;;
45887;SDS011;31595;51.418;7.572;2024-01-11T03:07:39;38.03;;;21.35;;
45887;SDS011;31595;51.418;7.572;2024-01-11T03:10:06;38.63;;;21.63;;
45887;SDS011;31595;51.418;7.572;2024-01-11T03:12:33;40.55;;;23.08;;
45887;SDS011;31595;51.418;7.572;2024-01-11T03:15:00;35.72;;;21.67;;
45887;SDS011;31595;51.418;7.572;2024-01-11T03:17:28;43.47;;;22.70;;
45887;SDS011;31595;51.418;7.572;2024-01-11T03:19:55;38.40;;;22.92;;
45887;SDS011;31595;51.418;7.572;2024-01-11T03:22:21;35.00;;;21.58;;
45887;SDS011;31595;51.418;7.572;2024-01-11T03:24:48;38.30;;;21.77;;
45887;SDS011;31595;51.418;7.572;2024-01-11T03:27:15;40.50;;;22.33;;
45887;SDS011;31595;51.418;7.572;2024-01-11T03:29:42;38.90;;;21.65;;
45887;SDS011;31595;51.418;7.572;2024-01-11T03:32:09;38.20;;;22.23;;
45887;SDS011;31595;51.418;7.572;2024-01-11T03:34:39;37.55;;;21.30;;
45887;SDS011;31595;51.418;7.572;2024-01-11T03:37:06;35.72;;;20.65;;
45887;SDS011;31595;51.418;7.572;2024-01-11T03:39:33;37.50;;;21.50;;
45887;SDS011;31595;51.418;7.572;2024-01-11T03:42:00;37.03;;;21.83;;
45887;SDS011;31595;51.418;7.572;2024-01-11T03:44:29;41.80;;;23.60;;
45887;SDS011;31595;51.418;7.572;2024-01-11T03:46:56;42.67;;;22.80;;
45887;SDS011;31595;51.418;7.572;2024-01-11T03:49:23;35.30;;;21.85;;
45887;SDS011;31595;51.418;7.572;2024-01-11T03:51:51;41.80;;;22.63;;
45887;SDS011;31595;51.418;7.572;2024-01-11T03:54:18;37.47;;;21.30;;
45887;SDS011;31595;51.418;7.572;2024-01-11T03:56:45;37.72;;;20.88;;
45887;SDS011;31595;51.418;7.572;2024-01-11T03:59:11;38.22;;;20.67;;
45887;SDS011;31595;51.418;7.572;2024-01-11T04:01:39;37.13;;;20.80;;
45887;SDS011;31595;51.418;7.572;2024-01-11T04:04:06;36.05;;;20.55;;
45887;SDS011;31595;51.418;7.572;2024-01-11T04:06:33;36.08;;;21.17;;
45887;SDS011;31595;51.418;7.572;2024-01-11T04:09:01;34.88;;;20.00;;
45887;SDS011;31595;51.418;7.572;2024-01-11T04:11:28;35.90;;;21.17;;
45887;SDS011;31595;51.418;7.572;2024-01-11T04:13:55;36.00;;;20.98;;
45887;SDS011;31595;51.418;7.572;2024-01-11T04:16:22;41.33;;;22.27;;
45887;SDS011;31595;51.418;7.572;2024-01-11T04:18:48;36.35;;;20.65;;
45887;SDS011;31595;51.418;7.572;2024-01-11T04:21:25;35.15;;;20.10;;
45887;SDS011;31595;51.418;7.572;2024-01-11T04:23:53;36.90;;;21.55;;
45887;SDS011;31595;51.418;7.572;2024-01-11T04:26:22;35.72;;;21.73;;
45887;SDS011;31595;51.418;7.572;2024-01-11T04:28:49;39.17;;;21.50;;
45887;SDS011;31595;51.418;7.572;2024-01-11T04:31:16;36.67;;;20.02;;
45887;SDS011;31595;51.418;7.572;2024-01-11T04:33:42;38.30;;;21.52;;
45887;SDS011;31595;51.418;7.572;2024-01-11T04:36:10;36.42;;;20.83;;
45887;SDS011;31595;51.418;7.572;2024-01-11T04:38:37;35.13;;;19.55;;
45887;SDS011;31595;51.418;7.572;2024-01-11T04:41:07;36.13;;;20.02;;
45887;SDS011;31595;51.418;7.572;2024-01-11T04:43:36;35.88;;;21.02;;
45887;SDS011;31595;51.418;7.572;2024-01-11T04:46:03;38.50;;;20.52;;
45887;SDS011;31595;51.418;7.572;2024-01-11T04:48:30;35.58;;;20.98;;
45887;SDS011;31595;51.418;7.572;2024-01-11T04:50:57;33.15;;;19.33;;
45887;SDS011;31595;51.418;7.572;2024-01-11T04:53:23;32.78;;;19.92;;
45887;SDS011;31595;51.418;7.572;2024-01-11T04:55:50;40.80;;;20.52;;
45887;SDS011;31595;51.418;7.572;2024-01-11T04:58:17;36.45;;;20.95;;
45887;SDS011;31595;51.418;7.572;2024-01-11T05:00:45;35.88;;;20.90;;
45887;SDS011;31595;51.418;7.572;2024-01-11T05:03:12;30.35;;;18.75;;
45887;SDS011;31595;51.418;7.572;2024-01-11T05:05:39;35.40;;;19.98;;
45887;SDS011;31595;51.418;7.572;2024-01-11T05:08:05;36.13;;;20.50;;
45887;SDS011;31595;51.418;7.572;2024-01-11T05:10:32;35.28;;;21.20;;
45887;SDS011;31595;51.418;7.572;2024-01-11T05:12:59;36.65;;;19.75;;
45887;SDS011;31595;51.418;7.572;2024-01-11T05:15:26;33.35;;;19.30;;
45887;SDS011;31595;51.418;7.572;2024-01-11T05:17:55;42.35;;;22.15;;
45887;SDS011;31595;51.418;7.572;2024-01-11T05:20:22;38.47;;;20.05;;
45887;SDS011;31595;51.418;7.572;2024-01-11T05:22:49;37.20;;;20.55;;
45887;SDS011;31595;51.418;7.572;2024-01-11T05:25:15;37.22;;;21.17;;
45887;SDS011;31595;51.418;7.572;2024-01-11T05:27:42;36.40;;;22.10;;
45887;SDS011;31595;51.418;7.572;2024-01-11T05:30:09;40.97;;;22.33;;
45887;SDS011;31595;51.418;7.572;2024-01-11T05:32:36;36.75;;;20.77;;
45887;SDS011;31595;51.418;7.572;2024-01-11T05:35:10;33.08;;;19.50;;
45887;SDS011;31595;51.418;7.572;2024-01-11T05:37:37;39.22;;;21.08;;
45887;SDS011;31595;51.418;7.572;2024-01-11T05:40:04;37.38;;;21.10;;
45887;SDS011;31595;51.418;7.572;2024-01-11T05:42:31;35.88;;;20.30;;
45887;SDS011;31595;51.418;7.572;2024-01-11T05:44:58;36.67;;;21.38;;
45887;SDS011;31595;51.418;7.572;2024-01-11T05:47:25;41.67;;;21.52;;
45887;SDS011;31595;51.418;7.572;2024-01-11T05:49:52;36.40;;;21.58;;
45887;SDS011;31595;51.418;7.572;2024-01-11T05:52:20;36.28;;;22.05;;
45887;SDS011;31595;51.418;7.572;2024-01-11T05:54:49;32.22;;;20.17;;
45887;SDS011;31595;51.418;7.572;2024-01-11T05:57:17;37.75;;;21.08;;
45887;SDS011;31595;51.418;7.572;2024-01-11T05:59:44;35.03;;;19.90;;
45887;SDS011;31595;51.418;7.572;2024-01-11T06:02:11;40.05;;;22.17;;
45887;SDS011;31595;51.418;7.572;2024-01-11T06:04:38;33.95;;;20.20;;
45887;SDS011;31595;51.418;7.572;2024-01-11T06:07:04;35.70;;;21.17;;
45887;SDS011;31595;51.418;7.572;2024-01-11T06:09:33;37.25;;;21.15;;
45887;SDS011;31595;51.418;7.572;2024-01-11T06:11:59;36.08;;;21.27;;
45887;SDS011;31595;51.418;7.572;2024-01-11T06:14:26;36.03;;;21.25;;
45887;SDS011;31595;51.418;7.572;2024-01-11T06:16:53;40.28;;;20.10;;
45887;SDS011;31595;51.418;7.572;2024-01-11T06:19:20;42.13;;;22.38;;
45887;SDS011;31595;51.418;7.572;2024-01-11T06:21:47;36.63;;;21.23;;
45887;SDS011;31595;51.418;7.572;2024-01-11T06:24:13;32.45;;;19.15;;
45887;SDS011;31595;51.418;7.572;2024-01-11T06:26:41;34.40;;;19.70;;
45887;SDS011;31595;51.418;7.572;2024-01-11T06:29:07;31.63;;;18.48;;
45887;SDS011;31595;51.418;7.572;2024-01-11T06:31:34;34.53;;;18.88;;
45887;SDS011;31595;51.418;7.572;2024-01-11T06:34:01;34.30;;;20.58;;
45887;SDS011;31595;51.418;7.572;2024-01-11T06:36:28;34.15;;;19.60;;
45887;SDS011;31595;51.418;7.572;2024-01-11T06:38:54;35.22;;;19.65;;
45887;SDS011;31595;51.418;7.572;2024-01-11T06:41:21;31.35;;;19.42;;
45887;SDS011;31595;51.418;7.572;2024-01-11T06:43:49;33.72;;;19.95;;
45887;SDS011;31595;51.418;7.572;2024-01-11T06:46:19;36.25;;;20.92;;
45887;SDS011;31595;51.418;7.572;2024-01-11T06:48:46;35.20;;;21.63;;
45887;SDS011;31595;51.418;7.572;2024-01-11T06:51:14;35.03;;;21.25;;
45887;SDS011;31595;51.418;7.572;2024-01-11T06:53:40;38.38;;;19.90;;
45887;SDS011;31595;51.418;7.572;2024-01-11T06:56:13;36.75;;;21.02;;
45887;SDS011;31595;51.418;7.572;2024-01-11T06:58:40;36.35;;;20.77;;
45887;SDS011;31595;51.418;7.572;2024-01-11T07:01:08;38.78;;;20.77;;
45887;SDS011;31595;51.418;7.572;2024-01-11T07:03:35;36.03;;;20.95;;
45887;SDS011;31595;51.418;7.572;2024-01-11T07:06:02;36.70;;;20.48;;
45887;SDS011;31595;51.418;7.572;2024-01-11T07:08:29;35.53;;;21.20;;
45887;SDS011;31595;51.418;7.572;2024-01-11T07:10:56;34.63;;;20.60;;
45887;SDS011;31595;51.418;7.572;2024-01-11T07:13:23;35.30;;;21.15;;
45887;SDS011;31595;51.418;7.572;2024-01-11T07:15:49;35.13;;;20.13;;
45887;SDS011;31595;51.418;7.572;2024-01-11T07:18:18;33.33;;;19.95;;
45887;SDS011;31595;51.418;7.572;2024-01-11T07:20:45;36.50;;;20.30;;
45887;SDS011;31595;51.418;7.572;2024-01-11T07:23:13;33.92;;;18.98;;
45887;SDS011;31595;51.418;7.572;2024-01-11T07:25:40;41.42;;;22.60;;
45887;SDS011;31595;51.418;7.572;2024-01-11T07:28:07;38.38;;;19.75;;
45887;SDS011;31595;51.418;7.572;2024-01-11T07:30:34;35.83;;;19.83;;
45887;SDS011;31595;51.418;7.572;2024-01-11T07:33:01;34.95;;;19.80;;
45887;SDS011;31595;51.418;7.572;2024-01-11T07:35:31;33.85;;;18.88;;
45887;SDS011;31595;51.418;7.572;2024-01-11T07:37:58;36.78;;;19.45;;
45887;SDS011;31595;51.418;7.572;2024-01-11T07:40:25;33.05;;;20.55;;
45887;SDS011;31595;51.418;7.572;2024-01-11T07:42:52;34.25;;;19.73;;
45887;SDS011;31595;51.418;7.572;2024-01-11T07:45:18;33.42;;;18.88;;
45887;SDS011;31595;51.418;7.572;2024-01-11T07:47:45;37.65;;;19.88;;
45887;SDS011;31595;51.418;7.572;2024-01-11T07:50:12;31.23;;;19.42;;
45887;SDS011;31595;51.418;7.572;2024-01-11T07:52:39;33.78;;;19.98;;
45887;SDS011;31595;51.418;7.572;2024-01-11T07:55:07;34.33;;;19.25;;
45887;SDS011;31595;51.418;7.572;2024-01-11T07:57:35;33.75;;;19.00;;
45887;SDS011;31595;51.418;7.572;2024-01-11T08:00:02;33.15;;;19.70;;
45887;SDS011;31595;51.418;7.572;2024-01-11T08:02:29;34.70;;;19.55;;
45887;SDS011;31595;51.418;7.572;2024-01-11T08:04:56;32.55;;;18.85;;
45887;SDS011;31595;51.418;7.572;2024-01-11T08:07:25;31.58;;;19.48;;
45887;SDS011;31595;51.418;7.572;2024-01-11T08:09:53;35.45;;;19.02;;
45887;SDS011;31595;51.418;7.572;2024-01-11T08:12:20;31.65;;;17.77;;
45887;SDS011;31595;51.418;7.572;2024-01-11T08:14:47;34.47;;;19.15;;
45887;SDS011;31595;51.418;7.572;2024-01-11T08:17:14;28.88;;;18.00;;
45887;SDS011;31595;51.418;7.572;2024-01-11T08:19:41;29.88;;;17.65;;
45887;SDS011;31595;51.418;7.572;2024-01-11T08:22:09;32.85;;;18.38;;
45887;SDS011;31595;51.418;7.572;2024-01-11T08:24:36;34.75;;;18.83;;
45887;SDS011;31595;51.418;7.572;2024-01-11T08:27:05;31.48;;;19.38;;
45887;SDS011;31595;51.418;7.572;2024-01-11T08:29:32;33.67;;;18.85;;
45887;SDS011;31595;51.418;7.572;2024-01-11T08:31:59;32.17;;;21.15;;
45887;SDS011;31595;51.418;7.572;2024-01-11T08:34:26;33.58;;;19.80;;
45887;SDS011;31595;51.418;7.572;2024-01-11T08:36:53;32.47;;;20.70;;
45887;SDS011;31595;51.418;7.572;2024-01-11T08:39:20;35.85;;;21.92;;
45887;SDS011;31595;51.418;7.572;2024-01-11T08:41:48;32.25;;;20.90;;
45887;SDS011;31595;51.418;7.572;2024-01-11T08:44:16;29.88;;;20.50;;
45887;SDS011;31595;51.418;7.572;2024-01-11T08:46:43;33.55;;;22.02;;
45887;SDS011;31595;51.418;7.572;2024-01-11T08:49:10;33.17;;;21.92;;
45887;SDS011;31595;51.418;7.572;2024-01-11T08:51:37;30.08;;;19.77;;
45887;SDS011;31595;51.418;7.572;2024-01-11T08:54:04;29.83;;;20.13;;
45887;SDS011;31595;51.418;7.572;2024-01-11T08:56:34;26.83;;;19.73;;
45887;SDS011;31595;51.418;7.572;2024-01-11T08:59:01;23.75;;;18.83;;
45887;SDS011;31595;51.418;7.572;2024-01-11T09:01:29;29.02;;;20.25;;
45887;SDS011;31595;51.418;7.572;2024-01-11T09:03:57;26.75;;;20.45;;
45887;SDS011;31595;51.418;7.572;2024-01-11T09:06:24;28.40;;;20.88;;
45887;SDS011;31595;51.418;7.572;2024-01-11T09:08:51;30.98;;;22.00;;
45887;SDS011;31595;51.418;7.572;2024-01-11T09:11:18;28.20;;;21.10;;
45887;SDS011;31595;51.418;7.572;2024-01-11T09:13:45;26.35;;;20.55;;
45887;SDS011;31595;51.418;7.572;2024-01-11T09:16:14;27.70;;;20.95;;
45887;SDS011;31595;51.418;7.572;2024-01-11T09:18:42;28.77;;;21.38;;
45887;SDS011;31595;51.418;7.572;2024-01-11T09:21:09;26.20;;;20.80;;
45887;SDS011;31595;51.418;7.572;2024-01-11T09:23:35;25.25;;;20.02;;
45887;SDS011;31595;51.418;7.572;2024-01-11T09:26:02;24.45;;;20.88;;
45887;SDS011;31595;51.418;7.572;2024-01-11T09:28:30;24.70;;;20.92;;
45887;SDS011;31595;51.418;7.572;2024-01-11T09:30:57;22.90;;;19.80;;
45887;SDS011;31595;51.418;7.572;2024-01-11T09:33:25;23.85;;;20.83;;
45887;SDS011;31595;51.418;7.572;2024-01-11T09:35:53;22.63;;;20.05;;
45887;SDS011;31595;51.418;7.572;2024-01-11T09:38:21;22.15;;;19.00;;
45887;SDS011;31595;51.418;7.572;2024-01-11T09:40:48;25.40;;;20.77;;
45887;SDS011;31595;51.418;7.572;2024-01-11T09:43:19;26.15;;;21.92;;
45887;SDS011;31595;51.418;7.572;2024-01-11T09:45:46;23.88;;;20.77;;
45887;SDS011;31595;51.418;7.572;2024-01-11T09:48:15;23.38;;;20.52;;
45887;SDS011;31595;51.418;7.572;2024-01-11T09:50:42;22.85;;;20.38;;
45887;SDS011;31595;51.418;7.572;2024-01-11T09:53:10;21.45;;;18.77;;
45887;SDS011;31595;51.418;7.572;2024-01-11T09:55:37;21.13;;;18.88;;
45887;SDS011;31595;51.418;7.572;2024-01-11T09:58:04;25.67;;;21.27;;
45887;SDS011;31595;51.418;7.572;2024-01-11T10:00:31;23.83;;;21.33;;
45887;SDS011;31595;51.418;7.572;2024-01-11T10:02:59;24.10;;;20.45;;
45887;SDS011;31595;51.418;7.572;2024-01-11T10:05:25;20.65;;;18.45;;
45887;SDS011;31595;51.418;7.572;2024-01-11T10:07:53;24.48;;;21.05;;
45887;SDS011;31595;51.418;7.572;2024-01-11T10:10:22;22.92;;;20.23;;
45887;SDS011;31595;51.418;7.572;2024-01-11T10:12:48;25.55;;;20.08;;
45887;SDS011;31595;51.418;7.572;2024-01-11T10:15:15;27.67;;;21.73;;
45887;SDS011;31595;51.418;7.572;2024-01-11T10:17:42;26.80;;;20.95;;
45887;SDS011;31595;51.418;7.572;2024-01-11T10:20:10;28.15;;;21.35;;
45887;SDS011;31595;51.418;7.572;2024-01-11T10:22:39;27.58;;;21.48;;
45887;SDS011;31595;51.418;7.572;2024-01-11T10:25:09;28.13;;;23.23;;
45887;SDS011;31595;51.418;7.572;2024-01-11T10:27:38;28.85;;;22.58;;
45887;SDS011;31595;51.418;7.572;2024-01-11T10:32:34;30.15;;;23.38;;
45887;SDS011;31595;51.418;7.572;2024-01-11T10:35:01;25.85;;;18.95;;
45887;SDS011;31595;51.418;7.572;2024-01-11T10:37:30;27.23;;;19.10;;
45887;SDS011;31595;51.418;7.572;2024-01-11T10:39:57;23.05;;;19.38;;
45887;SDS011;31595;51.418;7.572;2024-01-11T10:42:24;22.33;;;18.92;;
45887;SDS011;31595;51.418;7.572;2024-01-11T10:44:55;22.83;;;18.58;;
45887;SDS011;31595;51.418;7.572;2024-01-11T10:47:24;23.80;;;20.10;;
45887;SDS011;31595;51.418;7.572;2024-01-11T10:49:51;22.83;;;19.48;;
45887;SDS011;31595;51.418;7.572;2024-01-11T10:52:19;23.95;;;19.85;;
45887;SDS011;31595;51.418;7.572;2024-01-11T10:54:49;25.45;;;21.58;;
45887;SDS011;31595;51.418;7.572;2024-01-11T10:57:16;25.33;;;20.27;;
45887;SDS011;31595;51.418;7.572;2024-01-11T10:59:43;23.40;;;20.90;;
45887;SDS011;31595;51.418;7.572;2024-01-11T11:02:12;23.02;;;20.15;;
45887;SDS011;31595;51.418;7.572;2024-01-11T11:04:41;25.33;;;21.67;;
45887;SDS011;31595;51.418;7.572;2024-01-11T11:07:08;26.17;;;22.70;;
45887;SDS011;31595;51.418;7.572;2024-01-11T11:09:37;25.00;;;21.48;;
45887;SDS011;31595;51.418;7.572;2024-01-11T11:12:04;24.98;;;22.00;;
45887;SDS011;31595;51.418;7.572;2024-01-11T11:14:32;24.00;;;21.50;;
45887;SDS011;31595;51.418;7.572;2024-01-11T11:17:01;23.00;;;20.70;;
45887;SDS011;31595;51.418;7.572;2024-01-11T11:19:29;23.10;;;20.60;;
45887;SDS011;31595;51.418;7.572;2024-01-11T11:21:56;21.80;;;19.60;;
45887;SDS011;31595;51.418;7.572;2024-01-11T11:24:23;21.35;;;19.05;;
45887;SDS011;31595;51.418;7.572;2024-01-11T11:26:50;25.42;;;18.95;;
45887;SDS011;31595;51.418;7.572;2024-01-11T11:29:16;21.35;;;19.13;;
45887;SDS011;31595;51.418;7.572;2024-01-11T11:31:44;21.77;;;19.17;;
45887;SDS011;31595;51.418;7.572;2024-01-11T11:34:13;21.45;;;19.25;;
45887;SDS011;31595;51.418;7.572;2024-01-11T11:36:41;22.25;;;19.85;;
45887;SDS011;31595;51.418;7.572;2024-01-11T11:39:09;20.88;;;18.65;;
45887;SDS011;31595;51.418;7.572;2024-01-11T11:41:37;22.40;;;19.02;;
45887;SDS011;31595;51.418;7.572;2024-01-11T11:44:05;21.45;;;18.85;;
45887;SDS011;31595;51.418;7.572;2024-01-11T11:46:32;23.45;;;20.67;;
45887;SDS011;31595;51.418;7.572;2024-01-11T11:48:59;22.08;;;19.77;;
45887;SDS011;31595;51.418;7.572;2024-01-11T11:51:26;24.27;;;20.90;;
45887;SDS011;31595;51.418;7.572;2024-01-11T11:53:54;26.85;;;22.23;;
45887;SDS011;31595;51.418;7.572;2024-01-11T11:56:22;24.10;;;21.63;;
45887;SDS011;31595;51.418;7.572;2024-01-11T11:58:49;24.65;;;22.15;;
45887;SDS011;31595;51.418;7.572;2024-01-11T12:01:18;23.83;;;21.30;;
45887;SDS011;31595;51.418;7.572;2024-01-11T12:03:45;24.40;;;21.77;;
45887;SDS011;31595;51.418;7.572;2024-01-11T12:06:15;24.08;;;21.55;;
45887;SDS011;31595;51.418;7.572;2024-01-11T12:08:42;25.63;;;22.65;;
45887;SDS011;31595;51.418;7.572;2024-01-11T12:11:13;26.17;;;23.42;;
45887;SDS011;31595;51.418;7.572;2024-01-11T12:13:41;25.92;;;23.20;;
45887;SDS011;31595;51.418;7.572;2024-01-11T12:16:10;24.23;;;21.63;;
45887;SDS011;31595;51.418;7.572;2024-01-11T12:18:37;22.92;;;20.25;;
45887;SDS011;31595;51.418;7.572;2024-01-11T12:21:03;24.77;;;19.45;;
45887;SDS011;31595;51.418;7.572;2024-01-11T12:23:30;22.83;;;20.45;;
45887;SDS011;31595;51.418;7.572;2024-01-11T12:25:58;24.50;;;21.90;;
45887;SDS011;31595;51.418;7.572;2024-01-11T12:28:28;26.45;;;23.75;;
45887;SDS011;31595;51.418;7.572;2024-01-11T12:30:55;25.65;;;23.08;;
45887;SDS011;31595;51.418;7.572;2024-01-11T12:33:23;28.20;;;24.83;;
45887;SDS011;31595;51.418;7.572;2024-01-11T12:35:51;27.92;;;24.92;;
45887;SDS011;31595;51.418;7.572;2024-01-11T12:38:18;25.33;;;22.40;;
45887;SDS011;31595;51.418;7.572;2024-01-11T12:40:45;28.38;;;25.05;;
45887;SDS011;31595;51.418;7.572;2024-01-11T12:43:12;32.15;;;26.67;;
45887;SDS011;31595;51.418;7.572;2024-01-11T12:45:40;27.55;;;24.63;;
45887;SDS011;31595;51.418;7.572;2024-01-11T12:48:07;29.10;;;26.00;;
45887;SDS011;31595;51.418;7.572;2024-01-11T12:50:34;30.27;;;27.08;;
45887;SDS011;31595;51.418;7.572;2024-01-11T12:53:08;32.13;;;27.70;;
45887;SDS011;31595;51.418;7.572;2024-01-11T12:55:37;34.30;;;29.40;;
45887;SDS011;31595;51.418;7.572;2024-01-11T12:58:07;32.00;;;26.48;;
45887;SDS011;31595;51.418;7.572;2024-01-11T13:00:35;31.48;;;27.42;;
45887;SDS011;31595;51.418;7.572;2024-01-11T13:03:03;33.90;;;27.90;;
45887;SDS011;31595;51.418;7.572;2024-01-11T13:05:30;33.73;;;27.63;;
45887;SDS011;31595;51.418;7.572;2024-01-11T13:08:00;30.17;;;26.95;;
45887;SDS011;31595;51.418;7.572;2024-01-11T13:10:28;30.25;;;26.13;;
45887;SDS011;31595;51.418;7.572;2024-01-11T13:12:57;30.77;;;27.48;;
45887;SDS011;31595;51.418;7.572;2024-01-11T13:15:24;31.45;;;26.70;;
45887;SDS011;31595;51.418;7.572;2024-01-11T13:17:51;30.67;;;25.35;;
45887;SDS011;31595;51.418;7.572;2024-01-11T13:20:20;27.63;;;23.85;;
45887;SDS011;31595;51.418;7.572;2024-01-11T13:22:47;27.80;;;24.85;;
45887;SDS011;31595;51.418;7.572;2024-01-11T13:25:13;27.42;;;24.60;;
45887;SDS011;31595;51.418;7.572;2024-01-11T13:27:40;28.00;;;24.73;;
45887;SDS011;31595;51.418;7.572;2024-01-11T13:30:07;26.92;;;23.85;;
45887;SDS011;31595;51.418;7.572;2024-01-11T13:32:34;30.63;;;26.02;;
45887;SDS011;31595;51.418;7.572;2024-01-11T13:35:01;32.25;;;28.35;;
45887;SDS011;31595;51.418;7.572;2024-01-11T13:37:30;31.95;;;27.50;;
45887;SDS011;31595;51.418;7.572;2024-01-11T13:39:57;30.70;;;27.10;;
45887;SDS011;31595;51.418;7.572;2024-01-11T13:42:24;29.00;;;25.88;;
45887;SDS011;31595;51.418;7.572;2024-01-11T13:44:51;29.95;;;25.27;;
45887;SDS011;31595;51.418;7.572;2024-01-11T13:47:18;32.20;;;26.08;;
45887;SDS011;31595;51.418;7.572;2024-01-11T13:49:44;29.95;;;25.25;;
45887;SDS011;31595;51.418;7.572;2024-01-11T13:52:12;32.35;;;25.55;;
45887;SDS011;31595;51.418;7.572;2024-01-11T13:54:40;31.10;;;25.40;;
45887;SDS011;31595;51.418;7.572;2024-01-11T13:57:07;32.65;;;24.73;;
45887;SDS011;31595;51.418;7.572;2024-01-11T13:59:34;31.17;;;26.55;;
45887;SDS011;31595;51.418;7.572;2024-01-11T14:02:01;30.80;;;26.00;;
45887;SDS011;31595;51.418;7.572;2024-01-11T14:04:29;31.95;;;26.75;;
45887;SDS011;31595;51.418;7.572;2024-01-11T14:06:55;32.63;;;27.67;;
45887;SDS011;31595;51.418;7.572;2024-01-11T14:09:22;34.72;;;28.02;;
45887;SDS011;31595;51.418;7.572;2024-01-11T14:11:51;31.40;;;25.95;;
45887;SDS011;31595;51.418;7.572;2024-01-11T14:14:17;34.65;;;27.80;;
45887;SDS011;31595;51.418;7.572;2024-01-11T14:16:45;32.53;;;24.83;;
45887;SDS011;31595;51.418;7.572;2024-01-11T14:19:13;36.53;;;26.67;;
45887;SDS011;31595;51.418;7.572;2024-01-11T14:21:40;34.58;;;25.55;;
45887;SDS011;31595;51.418;7.572;2024-01-11T14:24:07;32.35;;;24.20;;